sensor_id;sensor_type;location;lat;lon;timestamp;pressure;altitude;pressure_sealevel;temperature;humidity
85140;BME280;75501;52.586;13.284;2024-02-16T00:00:13;101189.09;;;11.20;83.43
85140;BME280;75501;52.586;13.284;2024-02-16T00:02:43;101192.50;;;11.12;83.43
85140;BME280;75501;52.586;13.284;2024-02-16T00:05:14;101192.69;;;10.97;83.75
85140;BME280;75501;52.586;13.284;2024-02-16T00:07:42;101190.84;;;10.92;84.43
85140;BME280;75501;52.586;13.284;2024-02-16T00:10:10;101191.59;;;10.98;84.19
85140;BME280;75501;52.586;13.284;2024-02-16T00:12:39;101189.13;;;11.02;83.57
85140;BME280;75501;52.586;13.284;2024-02-16T00:15:09;101190.78;;;10.97;83.81
85140;BME280;75501;52.586;13.284;2024-02-16T00:17:38;101183.13;;;10.99;83.74
85140;BME280;75501;52.586;13.284;2024-02-16T00:20:07;101182.31;;;10.99;83.87
85140;BME280;75501;52.586;13.284;2024-02-16T00:22:40;101179.31;;;11.01;83.71
85140;BME280;75501;52.586;13.284;2024-02-16T00:25:08;101183.00;;;11.10;83.16
85140;BME280;75501;52.586;13.284;2024-02-16T00:27:36;101187.72;;;11.04;82.97
85140;BME280;75501;52.586;13.284;2024-02-16T00:30:06;101181.22;;;11.00;82.99
85140;BME280;75501;52.586;13.284;2024-02-16T00:32:37;101191.59;;;10.98;83.35
85140;BME280;75501;52.586;13.284;2024-02-16T00:35:05;101190.47;;;10.80;83.80
85140;BME280;75501;52.586;13.284;2024-02-16T00:37:34;101197.41;;;10.68;84.04
85140;BME280;75501;52.586;13.284;2024-02-16T00:40:05;101194.44;;;10.64;84.26
85140;BME280;75501;52.586;13.284;2024-02-16T00:42:34;101192.78;;;10.68;84.49
85140;BME280;75501;52.586;13.284;2024-02-16T00:45:02;101191.72;;;10.64;84.34
85140;BME280;75501;52.586;13.284;2024-02-16T00:47:31;101184.66;;;10.63;84.09
85140;BME280;75501;52.586;13.284;2024-02-16T00:49:59;101193.41;;;10.60;84.61
85140;BME280;75501;52.586;13.284;2024-02-16T00:52:28;101179.34;;;10.53;84.38
85140;BME280;75501;52.586;13.284;2024-02-16T00:54:56;101180.16;;;10.54;84.38
85140;BME280;75501;52.586;13.284;2024-02-16T00:57:25;101190.22;;;10.53;84.41
85140;BME280;75501;52.586;13.284;2024-02-16T00:59:54;101189.53;;;10.42;84.77
85140;BME280;75501;52.586;13.284;2024-02-16T01:02:22;101174.25;;;10.46;84.70
85140;BME280;75501;52.586;13.284;2024-02-16T01:04:54;101173.91;;;10.53;84.61
85140;BME280;75501;52.586;13.284;2024-02-16T01:07:28;101157.13;;;10.70;83.79
85140;BME280;75501;52.586;13.284;2024-02-16T01:09:58;101163.81;;;10.54;84.34
85140;BME280;75501;52.586;13.284;2024-02-16T01:12:27;101156.66;;;10.63;83.80
85140;BME280;75501;52.586;13.284;2024-02-16T01:14:57;101151.22;;;10.63;83.69
85140;BME280;75501;52.586;13.284;2024-02-16T01:17:26;101160.06;;;10.49;84.25
85140;BME280;75501;52.586;13.284;2024-02-16T01:19:54;101166.16;;;10.41;84.26
85140;BME280;75501;52.586;13.284;2024-02-16T01:22:23;101162.44;;;10.32;84.56
85140;BME280;75501;52.586;13.284;2024-02-16T01:24:51;101155.09;;;10.33;84.44
85140;BME280;75501;52.586;13.284;2024-02-16T01:27:20;101155.81;;;10.38;84.58
85140;BME280;75501;52.586;13.284;2024-02-16T01:29:50;101154.13;;;10.47;84.20
85140;BME280;75501;52.586;13.284;2024-02-16T01:32:18;101160.38;;;10.48;83.61
85140;BME280;75501;52.586;13.284;2024-02-16T01:34:46;101156.72;;;10.58;83.17
85140;BME280;75501;52.586;13.284;2024-02-16T01:37:16;101154.13;;;10.47;83.43
85140;BME280;75501;52.586;13.284;2024-02-16T01:39:44;101144.28;;;10.52;83.73
85140;BME280;75501;52.586;13.284;2024-02-16T01:42:12;101149.28;;;10.63;83.05
85140;BME280;75501;52.586;13.284;2024-02-16T01:44:40;101146.28;;;10.65;83.01
85140;BME280;75501;52.586;13.284;2024-02-16T01:47:10;101145.66;;;10.73;82.86
85140;BME280;75501;52.586;13.284;2024-02-16T01:49:38;101132.03;;;10.73;82.38
85140;BME280;75501;52.586;13.284;2024-02-16T01:52:07;101133.31;;;10.80;82.22
85140;BME280;75501;52.586;13.284;2024-02-16T01:54:36;101128.97;;;10.79;82.31
85140;BME280;75501;52.586;13.284;2024-02-16T01:57:05;101122.47;;;10.75;82.22
85140;BME280;75501;52.586;13.284;2024-02-16T01:59:35;101122.69;;;10.79;82.17
85140;BME280;75501;52.586;13.284;2024-02-16T02:02:03;101119.09;;;10.83;81.81
85140;BME280;75501;52.586;13.284;2024-02-16T02:04:33;101115.34;;;10.79;82.19
85140;BME280;75501;52.586;13.284;2024-02-16T02:07:11;101112.84;;;10.83;81.72
85140;BME280;75501;52.586;13.284;2024-02-16T02:09:40;101103.06;;;10.82;81.67
85140;BME280;75501;52.586;13.284;2024-02-16T02:12:09;101091.22;;;10.73;81.61
85140;BME280;75501;52.586;13.284;2024-02-16T02:14:37;101093.34;;;10.76;81.58
85140;BME280;75501;52.586;13.284;2024-02-16T02:17:05;101071.94;;;10.69;81.46
85140;BME280;75501;52.586;13.284;2024-02-16T02:19:35;101086.94;;;10.67;81.48
85140;BME280;75501;52.586;13.284;2024-02-16T02:22:03;101084.56;;;10.60;82.21
85140;BME280;75501;52.586;13.284;2024-02-16T02:24:33;101083.19;;;10.63;81.85
85140;BME280;75501;52.586;13.284;2024-02-16T02:27:02;101073.25;;;10.72;81.81
85140;BME280;75501;52.586;13.284;2024-02-16T02:29:30;101079.28;;;10.69;81.44
85140;BME280;75501;52.586;13.284;2024-02-16T02:31:58;101068.41;;;10.69;81.31
85140;BME280;75501;52.586;13.284;2024-02-16T02:34:26;101072.16;;;10.73;81.61
85140;BME280;75501;52.586;13.284;2024-02-16T02:36:55;101064.84;;;10.49;81.92
85140;BME280;75501;52.586;13.284;2024-02-16T02:39:23;101069.94;;;10.56;81.84
85140;BME280;75501;52.586;13.284;2024-02-16T02:41:52;101069.66;;;10.58;81.63
85140;BME280;75501;52.586;13.284;2024-02-16T02:44:21;101062.16;;;10.68;81.21
85140;BME280;75501;52.586;13.284;2024-02-16T02:46:49;101073.31;;;10.67;81.50
85140;BME280;75501;52.586;13.284;2024-02-16T02:49:17;101064.78;;;10.55;82.06
85140;BME280;75501;52.586;13.284;2024-02-16T02:51:45;101075.59;;;10.60;81.61
85140;BME280;75501;52.586;13.284;2024-02-16T02:54:13;101061.75;;;10.56;81.37
85140;BME280;75501;52.586;13.284;2024-02-16T02:56:41;101068.91;;;10.52;81.45
85140;BME280;75501;52.586;13.284;2024-02-16T02:59:11;101065.44;;;10.46;81.60
85140;BME280;75501;52.586;13.284;2024-02-16T03:01:39;101076.91;;;10.43;81.56
85140;BME280;75501;52.586;13.284;2024-02-16T03:04:07;101061.81;;;10.32;81.98
85140;BME280;75501;52.586;13.284;2024-02-16T03:06:36;101072.28;;;10.44;81.54
85140;BME280;75501;52.586;13.284;2024-02-16T03:09:04;101073.78;;;10.31;81.96
85140;BME280;75501;52.586;13.284;2024-02-16T03:11:33;101073.50;;;10.33;81.86
85140;BME280;75501;52.586;13.284;2024-02-16T03:14:02;101076.91;;;10.20;82.35
85140;BME280;75501;52.586;13.284;2024-02-16T03:16:33;101078.94;;;10.33;81.76
85140;BME280;75501;52.586;13.284;2024-02-16T03:19:01;101071.06;;;10.31;81.79
85140;BME280;75501;52.586;13.284;2024-02-16T03:21:29;101065.34;;;10.33;82.06
85140;BME280;75501;52.586;13.284;2024-02-16T03:23:57;101053.69;;;10.27;81.76
85140;BME280;75501;52.586;13.284;2024-02-16T03:26:25;101060.19;;;10.31;81.86
85140;BME280;75501;52.586;13.284;2024-02-16T03:28:54;101055.72;;;10.40;81.57
85140;BME280;75501;52.586;13.284;2024-02-16T03:31:23;101058.81;;;10.34;81.79
85140;BME280;75501;52.586;13.284;2024-02-16T03:33:54;101054.41;;;10.38;81.67
85140;BME280;75501;52.586;13.284;2024-02-16T03:36:23;101046.03;;;10.34;81.98
85140;BME280;75501;52.586;13.284;2024-02-16T03:38:51;101048.16;;;10.37;81.49
85140;BME280;75501;52.586;13.284;2024-02-16T03:41:21;101039.31;;;10.27;81.75
85140;BME280;75501;52.586;13.284;2024-02-16T03:43:51;101047.97;;;10.29;81.93
85140;BME280;75501;52.586;13.284;2024-02-16T03:46:20;101051.41;;;10.16;82.03
85140;BME280;75501;52.586;13.284;2024-02-16T03:48:48;101053.91;;;10.07;82.43
85140;BME280;75501;52.586;13.284;2024-02-16T03:51:18;101047.28;;;10.18;81.88
85140;BME280;75501;52.586;13.284;2024-02-16T03:53:46;101046.72;;;10.21;81.77
85140;BME280;75501;52.586;13.284;2024-02-16T03:56:18;101036.66;;;10.22;81.93
85140;BME280;75501;52.586;13.284;2024-02-16T03:58:47;101034.09;;;10.30;81.15
85140;BME280;75501;52.586;13.284;2024-02-16T04:01:15;101033.19;;;10.16;81.83
85140;BME280;75501;52.586;13.284;2024-02-16T04:03:43;101036.91;;;10.20;81.42
85140;BME280;75501;52.586;13.284;2024-02-16T04:06:12;101038.50;;;10.26;81.57
85140;BME280;75501;52.586;13.284;2024-02-16T04:08:41;101036.81;;;10.30;81.23
85140;BME280;75501;52.586;13.284;2024-02-16T04:11:11;101034.16;;;10.25;81.39
85140;BME280;75501;52.586;13.284;2024-02-16T04:13:41;101029.56;;;10.21;81.45
85140;BME280;75501;52.586;13.284;2024-02-16T04:16:09;101023.56;;;10.24;81.60
85140;BME280;75501;52.586;13.284;2024-02-16T04:18:38;101023.84;;;10.22;81.37
85140;BME280;75501;52.586;13.284;2024-02-16T04:21:06;101021.66;;;10.24;81.54
85140;BME280;75501;52.586;13.284;2024-02-16T04:23:34;101024.53;;;10.33;80.98
85140;BME280;75501;52.586;13.284;2024-02-16T04:26:03;101023.44;;;10.34;81.16
85140;BME280;75501;52.586;13.284;2024-02-16T04:28:33;101023.94;;;10.36;80.88
85140;BME280;75501;52.586;13.284;2024-02-16T04:31:02;101022.47;;;10.25;81.08
85140;BME280;75501;52.586;13.284;2024-02-16T04:33:30;101012.91;;;10.27;80.80
85140;BME280;75501;52.586;13.284;2024-02-16T04:35:58;101007.69;;;10.31;81.01
85140;BME280;75501;52.586;13.284;2024-02-16T04:38:26;101005.28;;;10.29;81.16
85140;BME280;75501;52.586;13.284;2024-02-16T04:40:54;101013.56;;;10.19;81.58
85140;BME280;75501;52.586;13.284;2024-02-16T04:43:24;101001.56;;;10.20;81.28
85140;BME280;75501;52.586;13.284;2024-02-16T04:45:52;101004.00;;;10.22;81.09
85140;BME280;75501;52.586;13.284;2024-02-16T04:48:21;100993.59;;;10.29;80.96
85140;BME280;75501;52.586;13.284;2024-02-16T04:50:49;100995.34;;;10.38;80.52
85140;BME280;75501;52.586;13.284;2024-02-16T04:53:18;101002.34;;;10.26;81.15
85140;BME280;75501;52.586;13.284;2024-02-16T04:55:46;100988.31;;;10.14;81.01
85140;BME280;75501;52.586;13.284;2024-02-16T04:58:14;101005.91;;;10.21;81.17
85140;BME280;75501;52.586;13.284;2024-02-16T05:00:43;100998.13;;;10.15;81.38
85140;BME280;75501;52.586;13.284;2024-02-16T05:03:13;100992.94;;;10.13;81.21
85140;BME280;75501;52.586;13.284;2024-02-16T05:05:42;100997.59;;;10.13;80.95
85140;BME280;75501;52.586;13.284;2024-02-16T05:08:10;100994.41;;;10.06;81.54
85140;BME280;75501;52.586;13.284;2024-02-16T05:10:38;101001.44;;;10.07;81.27
85140;BME280;75501;52.586;13.284;2024-02-16T05:13:06;100996.94;;;9.97;82.01
85140;BME280;75501;52.586;13.284;2024-02-16T05:15:35;100985.56;;;9.95;81.67
85140;BME280;75501;52.586;13.284;2024-02-16T05:18:05;100994.88;;;9.89;82.13
85140;BME280;75501;52.586;13.284;2024-02-16T05:20:33;100995.09;;;9.92;81.74
85140;BME280;75501;52.586;13.284;2024-02-16T05:23:02;100991.09;;;9.85;82.12
85140;BME280;75501;52.586;13.284;2024-02-16T05:25:30;100991.63;;;9.87;81.75
85140;BME280;75501;52.586;13.284;2024-02-16T05:27:58;100988.72;;;9.78;82.29
85140;BME280;75501;52.586;13.284;2024-02-16T05:30:28;100975.91;;;9.84;81.99
85140;BME280;75501;52.586;13.284;2024-02-16T05:32:56;100959.59;;;9.84;81.95
85140;BME280;75501;52.586;13.284;2024-02-16T05:35:27;100952.03;;;9.81;82.41
85140;BME280;75501;52.586;13.284;2024-02-16T05:38:00;100958.56;;;9.80;82.31
85140;BME280;75501;52.586;13.284;2024-02-16T05:40:33;100969.25;;;9.71;82.22
85140;BME280;75501;52.586;13.284;2024-02-16T05:43:20;100962.22;;;9.70;82.73
85140;BME280;75501;52.586;13.284;2024-02-16T05:45:48;100966.75;;;9.75;82.33
85140;BME280;75501;52.586;13.284;2024-02-16T05:48:16;100972.28;;;9.70;82.36
85140;BME280;75501;52.586;13.284;2024-02-16T05:50:47;100970.38;;;9.70;82.88
85140;BME280;75501;52.586;13.284;2024-02-16T05:53:16;100975.22;;;9.73;82.50
85140;BME280;75501;52.586;13.284;2024-02-16T05:55:45;100972.78;;;9.72;82.62
85140;BME280;75501;52.586;13.284;2024-02-16T05:58:14;100972.16;;;9.80;82.42
85140;BME280;75501;52.586;13.284;2024-02-16T06:00:42;100966.72;;;9.80;82.43
85140;BME280;75501;52.586;13.284;2024-02-16T06:03:10;100947.34;;;9.86;82.14
85140;BME280;75501;52.586;13.284;2024-02-16T06:05:38;100951.38;;;9.89;82.23
85140;BME280;75501;52.586;13.284;2024-02-16T06:08:09;100952.19;;;9.89;81.82
85140;BME280;75501;52.586;13.284;2024-02-16T06:10:37;100947.06;;;9.88;82.04
85140;BME280;75501;52.586;13.284;2024-02-16T06:13:06;100956.69;;;9.99;81.46
85140;BME280;75501;52.586;13.284;2024-02-16T06:15:34;100955.13;;;9.93;82.18
85140;BME280;75501;52.586;13.284;2024-02-16T06:18:04;100948.53;;;9.99;81.37
85140;BME280;75501;52.586;13.284;2024-02-16T06:20:33;100940.47;;;9.94;81.24
85140;BME280;75501;52.586;13.284;2024-02-16T06:23:01;100935.59;;;9.91;81.64
85140;BME280;75501;52.586;13.284;2024-02-16T06:25:30;100941.56;;;9.93;81.67
85140;BME280;75501;52.586;13.284;2024-02-16T06:27:58;100958.56;;;9.80;81.93
85140;BME280;75501;52.586;13.284;2024-02-16T06:30:26;100968.75;;;9.69;82.60
85140;BME280;75501;52.586;13.284;2024-02-16T06:32:55;100963.47;;;9.78;82.27
85140;BME280;75501;52.586;13.284;2024-02-16T06:35:25;100972.97;;;9.80;82.02
85140;BME280;75501;52.586;13.284;2024-02-16T06:37:54;100980.53;;;9.83;82.09
85140;BME280;75501;52.586;13.284;2024-02-16T06:40:22;100983.66;;;9.72;82.23
85140;BME280;75501;52.586;13.284;2024-02-16T06:42:54;100980.34;;;9.75;82.56
85140;BME280;75501;52.586;13.284;2024-02-16T06:45:22;100977.34;;;9.76;82.21
85140;BME280;75501;52.586;13.284;2024-02-16T06:47:50;100975.91;;;9.84;81.89
85140;BME280;75501;52.586;13.284;2024-02-16T06:50:18;100974.75;;;9.90;81.52
85140;BME280;75501;52.586;13.284;2024-02-16T06:52:47;100971.16;;;9.94;81.64
85140;BME280;75501;52.586;13.284;2024-02-16T06:55:15;100972.22;;;9.98;81.34
85140;BME280;75501;52.586;13.284;2024-02-16T06:57:43;100957.13;;;10.06;81.23
85140;BME280;75501;52.586;13.284;2024-02-16T07:00:14;100961.44;;;10.12;81.14
85140;BME280;75501;52.586;13.284;2024-02-16T07:02:43;100959.78;;;10.16;80.78
85140;BME280;75501;52.586;13.284;2024-02-16T07:05:12;100959.47;;;10.18;80.62
85140;BME280;75501;52.586;13.284;2024-02-16T07:07:40;100958.97;;;10.16;80.70
85140;BME280;75501;52.586;13.284;2024-02-16T07:10:09;100955.66;;;10.19;80.56
85140;BME280;75501;52.586;13.284;2024-02-16T07:12:40;100962.72;;;10.20;80.44
85140;BME280;75501;52.586;13.284;2024-02-16T07:15:08;100961.75;;;10.29;80.07
85140;BME280;75501;52.586;13.284;2024-02-16T07:17:38;100958.19;;;10.34;79.76
85140;BME280;75501;52.586;13.284;2024-02-16T07:20:07;100955.47;;;10.34;80.26
85140;BME280;75501;52.586;13.284;2024-02-16T07:22:37;100952.22;;;10.51;79.64
85140;BME280;75501;52.586;13.284;2024-02-16T07:25:05;100948.53;;;10.60;79.15
85140;BME280;75501;52.586;13.284;2024-02-16T07:27:34;100950.88;;;10.67;78.81
85140;BME280;75501;52.586;13.284;2024-02-16T07:30:04;100943.88;;;10.79;78.46
85140;BME280;75501;52.586;13.284;2024-02-16T07:32:32;100943.66;;;10.76;78.31
85140;BME280;75501;52.586;13.284;2024-02-16T07:35:02;100944.13;;;10.96;77.91
85140;BME280;75501;52.586;13.284;2024-02-16T07:37:31;100944.41;;;10.95;77.20
85140;BME280;75501;52.586;13.284;2024-02-16T07:40:00;100949.75;;;11.19;76.62
85140;BME280;75501;52.586;13.284;2024-02-16T07:42:30;100942.88;;;11.21;76.46
85140;BME280;75501;52.586;13.284;2024-02-16T07:45:03;100936.03;;;11.37;75.72
85140;BME280;75501;52.586;13.284;2024-02-16T07:47:32;100946.97;;;11.51;75.61
85140;BME280;75501;52.586;13.284;2024-02-16T07:50:01;100941.41;;;11.42;76.01
85140;BME280;75501;52.586;13.284;2024-02-16T07:52:31;100958.34;;;11.26;75.78
85140;BME280;75501;52.586;13.284;2024-02-16T07:54:59;100963.19;;;11.29;76.21
85140;BME280;75501;52.586;13.284;2024-02-16T07:57:28;100957.06;;;11.37;75.78
85140;BME280;75501;52.586;13.284;2024-02-16T08:00:02;100959.59;;;11.61;75.14
85140;BME280;75501;52.586;13.284;2024-02-16T08:02:31;100957.50;;;11.71;74.57
85140;BME280;75501;52.586;13.284;2024-02-16T08:04:59;100964.47;;;11.91;73.81
85140;BME280;75501;52.586;13.284;2024-02-16T08:07:28;100969.09;;;11.77;74.54
85140;BME280;75501;52.586;13.284;2024-02-16T08:09:57;100971.84;;;11.90;73.57
85140;BME280;75501;52.586;13.284;2024-02-16T08:12:27;100971.94;;;11.99;73.09
85140;BME280;75501;52.586;13.284;2024-02-16T08:14:55;100979.03;;;11.86;73.75
85140;BME280;75501;52.586;13.284;2024-02-16T08:17:26;100967.09;;;12.10;72.94
85140;BME280;75501;52.586;13.284;2024-02-16T08:19:54;100976.97;;;12.19;73.03
85140;BME280;75501;52.586;13.284;2024-02-16T08:22:23;100972.84;;;12.22;73.24
85140;BME280;75501;52.586;13.284;2024-02-16T08:24:52;100966.94;;;12.42;72.36
85140;BME280;75501;52.586;13.284;2024-02-16T08:27:20;100971.56;;;12.41;71.05
85140;BME280;75501;52.586;13.284;2024-02-16T08:29:49;100974.53;;;12.31;72.02
85140;BME280;75501;52.586;13.284;2024-02-16T08:32:18;100976.75;;;12.29;71.93
85140;BME280;75501;52.586;13.284;2024-02-16T08:34:47;100969.38;;;12.30;71.42
85140;BME280;75501;52.586;13.284;2024-02-16T08:37:16;100969.50;;;12.25;71.56
85140;BME280;75501;52.586;13.284;2024-02-16T08:39:45;100967.56;;;12.25;72.25
85140;BME280;75501;52.586;13.284;2024-02-16T08:42:15;100962.91;;;12.39;70.92
85140;BME280;75501;52.586;13.284;2024-02-16T08:44:44;100956.53;;;12.30;71.92
85140;BME280;75501;52.586;13.284;2024-02-16T08:47:12;100961.81;;;12.27;72.54
85140;BME280;75501;52.586;13.284;2024-02-16T08:49:40;100952.69;;;12.31;71.78
85140;BME280;75501;52.586;13.284;2024-02-16T08:52:09;100955.59;;;12.48;70.97
85140;BME280;75501;52.586;13.284;2024-02-16T08:54:37;100951.56;;;12.68;71.00
85140;BME280;75501;52.586;13.284;2024-02-16T08:57:06;100948.28;;;12.80;70.03
85140;BME280;75501;52.586;13.284;2024-02-16T08:59:35;100946.44;;;12.67;70.03
85140;BME280;75501;52.586;13.284;2024-02-16T09:02:04;100937.38;;;12.80;70.23
85140;BME280;75501;52.586;13.284;2024-02-16T09:04:32;100939.97;;;12.85;69.33
85140;BME280;75501;52.586;13.284;2024-02-16T09:07:01;100932.00;;;12.97;69.63
85140;BME280;75501;52.586;13.284;2024-02-16T09:09:30;100942.75;;;12.93;69.21
85140;BME280;75501;52.586;13.284;2024-02-16T09:11:58;100943.94;;;13.01;68.84
85140;BME280;75501;52.586;13.284;2024-02-16T09:14:26;100955.81;;;12.74;69.68
85140;BME280;75501;52.586;13.284;2024-02-16T09:16:55;100951.03;;;13.02;69.44
85140;BME280;75501;52.586;13.284;2024-02-16T09:19:23;100949.31;;;13.37;67.53
85140;BME280;75501;52.586;13.284;2024-02-16T09:21:52;100946.09;;;13.66;67.26
85140;BME280;75501;52.586;13.284;2024-02-16T09:24:24;100938.75;;;13.83;66.46
85140;BME280;75501;52.586;13.284;2024-02-16T09:26:55;100933.56;;;13.82;66.13
85140;BME280;75501;52.586;13.284;2024-02-16T09:29:27;100938.66;;;14.06;65.42
85140;BME280;75501;52.586;13.284;2024-02-16T09:31:57;100940.72;;;14.00;64.62
85140;BME280;75501;52.586;13.284;2024-02-16T09:34:27;100941.59;;;14.35;64.44
85140;BME280;75501;52.586;13.284;2024-02-16T09:36:55;100934.69;;;14.55;62.61
85140;BME280;75501;52.586;13.284;2024-02-16T09:39:23;100945.00;;;14.75;62.24
85140;BME280;75501;52.586;13.284;2024-02-16T09:41:53;100937.75;;;14.62;62.71
85140;BME280;75501;52.586;13.284;2024-02-16T09:44:23;100925.16;;;14.35;63.39
85140;BME280;75501;52.586;13.284;2024-02-16T09:46:53;100936.47;;;14.51;62.64
85140;BME280;75501;52.586;13.284;2024-02-16T09:49:23;100939.53;;;14.66;62.57
85140;BME280;75501;52.586;13.284;2024-02-16T09:52:05;100933.03;;;14.28;63.38
85140;BME280;75501;52.586;13.284;2024-02-16T09:54:38;100942.38;;;14.27;63.31
85140;BME280;75501;52.586;13.284;2024-02-16T09:57:07;100943.56;;;14.52;63.12
85140;BME280;75501;52.586;13.284;2024-02-16T09:59:36;100942.75;;;14.60;61.96
85140;BME280;75501;52.586;13.284;2024-02-16T10:02:04;100943.72;;;14.55;62.51
85140;BME280;75501;52.586;13.284;2024-02-16T10:04:35;100941.59;;;14.95;60.98
85140;BME280;75501;52.586;13.284;2024-02-16T10:07:04;100942.44;;;14.61;61.72
85140;BME280;75501;52.586;13.284;2024-02-16T10:09:38;100940.66;;;14.57;61.60
85140;BME280;75501;52.586;13.284;2024-02-16T10:12:09;100948.38;;;14.55;61.81
85140;BME280;75501;52.586;13.284;2024-02-16T10:14:38;100942.75;;;14.60;60.74
85140;BME280;75501;52.586;13.284;2024-02-16T10:17:08;100939.53;;;14.40;61.71
85140;BME280;75501;52.586;13.284;2024-02-16T10:19:38;100941.88;;;14.16;61.87
85140;BME280;75501;52.586;13.284;2024-02-16T10:22:09;100938.34;;;14.16;62.23
85140;BME280;75501;52.586;13.284;2024-02-16T10:24:39;100933.34;;;14.09;62.86
85140;BME280;75501;52.586;13.284;2024-02-16T10:27:13;100943.31;;;14.05;62.46
85140;BME280;75501;52.586;13.284;2024-02-16T10:29:47;100945.88;;;14.10;62.38
85140;BME280;75501;52.586;13.284;2024-02-16T10:32:18;100939.13;;;14.08;62.68
85140;BME280;75501;52.586;13.284;2024-02-16T10:34:48;100940.72;;;14.00;62.19
85140;BME280;75501;52.586;13.284;2024-02-16T10:37:20;100937.97;;;14.00;62.73
85140;BME280;75501;52.586;13.284;2024-02-16T10:39:51;100935.34;;;14.34;64.30
85140;BME280;75501;52.586;13.284;2024-02-16T10:42:26;100939.69;;;14.61;62.42
85140;BME280;75501;52.586;13.284;2024-02-16T10:44:55;100946.63;;;14.76;61.74
85140;BME280;75501;52.586;13.284;2024-02-16T10:47:24;100942.44;;;14.61;62.53
85140;BME280;75501;52.586;13.284;2024-02-16T10:49:54;100935.66;;;14.76;61.86
85140;BME280;75501;52.586;13.284;2024-02-16T10:52:23;100942.09;;;14.80;61.44
85140;BME280;75501;52.586;13.284;2024-02-16T10:54:52;100932.78;;;14.55;60.95
85140;BME280;75501;52.586;13.284;2024-02-16T10:57:23;100934.69;;;14.63;61.22
85140;BME280;75501;52.586;13.284;2024-02-16T10:59:53;100923.41;;;14.56;61.78
85140;BME280;75501;52.586;13.284;2024-02-16T11:02:21;100916.03;;;14.48;61.67
85140;BME280;75501;52.586;13.284;2024-02-16T11:04:52;100916.16;;;14.69;60.58
85140;BME280;75501;52.586;13.284;2024-02-16T11:07:24;100915.22;;;14.48;61.10
85140;BME280;75501;52.586;13.284;2024-02-16T11:09:53;100913.72;;;14.33;61.63
85140;BME280;75501;52.586;13.284;2024-02-16T11:12:22;100919.22;;;14.50;61.22
85140;BME280;75501;52.586;13.284;2024-02-16T11:14:50;100916.47;;;14.76;60.46
85140;BME280;75501;52.586;13.284;2024-02-16T11:17:23;100911.97;;;14.80;60.69
85140;BME280;75501;52.586;13.284;2024-02-16T11:19:54;100917.38;;;15.14;60.08
85140;BME280;75501;52.586;13.284;2024-02-16T11:22:26;100913.88;;;15.05;59.40
85140;BME280;75501;52.586;13.284;2024-02-16T11:24:55;100915.75;;;15.22;59.14
85140;BME280;75501;52.586;13.284;2024-02-16T11:27:31;100905.59;;;15.14;59.54
85140;BME280;75501;52.586;13.284;2024-02-16T11:30:01;100902.69;;;15.19;59.23
85140;BME280;75501;52.586;13.284;2024-02-16T11:32:32;100908.94;;;15.36;58.87
85140;BME280;75501;52.586;13.284;2024-02-16T11:35:06;100903.25;;;15.50;58.04
85140;BME280;75501;52.586;13.284;2024-02-16T11:37:35;100909.28;;;15.26;58.46
85140;BME280;75501;52.586;13.284;2024-02-16T11:40:05;100900.72;;;15.28;58.36
85140;BME280;75501;52.586;13.284;2024-02-16T11:42:35;100903.84;;;15.64;58.24
85140;BME280;75501;52.586;13.284;2024-02-16T11:45:04;100901.78;;;15.53;57.84
85140;BME280;75501;52.586;13.284;2024-02-16T11:47:33;100901.34;;;15.80;57.69
85140;BME280;75501;52.586;13.284;2024-02-16T11:50:07;100906.44;;;15.90;56.40
85140;BME280;75501;52.586;13.284;2024-02-16T11:52:38;100909.13;;;16.19;56.44
85140;BME280;75501;52.586;13.284;2024-02-16T11:55:08;100910.31;;;15.89;56.73
85140;BME280;75501;52.586;13.284;2024-02-16T11:57:38;100902.19;;;15.72;57.27
85140;BME280;75501;52.586;13.284;2024-02-16T12:00:08;100904.78;;;15.98;57.14
85140;BME280;75501;52.586;13.284;2024-02-16T12:02:42;100903.31;;;15.71;58.21
85140;BME280;75501;52.586;13.284;2024-02-16T12:05:14;100909.16;;;15.61;59.01
85140;BME280;75501;52.586;13.284;2024-02-16T12:07:43;100901.66;;;15.40;60.18
85140;BME280;75501;52.586;13.284;2024-02-16T12:10:13;100902.34;;;15.29;60.81
85140;BME280;75501;52.586;13.284;2024-02-16T12:12:42;100904.38;;;15.49;60.44
85140;BME280;75501;52.586;13.284;2024-02-16T12:15:10;100900.94;;;15.61;60.02
85140;BME280;75501;52.586;13.284;2024-02-16T12:17:40;100902.06;;;15.60;58.37
85140;BME280;75501;52.586;13.284;2024-02-16T12:20:11;100895.38;;;15.78;58.33
85140;BME280;75501;52.586;13.284;2024-02-16T12:22:43;100898.31;;;15.73;58.10
85140;BME280;75501;52.586;13.284;2024-02-16T12:25:11;100900.53;;;15.79;58.15
85140;BME280;75501;52.586;13.284;2024-02-16T12:27:39;100901.06;;;15.73;57.69
85140;BME280;75501;52.586;13.284;2024-02-16T12:30:09;100893.28;;;15.75;58.22
85140;BME280;75501;52.586;13.284;2024-02-16T12:32:38;100888.41;;;15.51;59.04
85140;BME280;75501;52.586;13.284;2024-02-16T12:35:08;100896.59;;;15.60;59.42
85140;BME280;75501;52.586;13.284;2024-02-16T12:37:36;100889.44;;;15.67;58.81
85140;BME280;75501;52.586;13.284;2024-02-16T12:40:08;100883.94;;;15.76;58.49
85140;BME280;75501;52.586;13.284;2024-02-16T12:42:36;100891.69;;;15.94;57.92
85140;BME280;75501;52.586;13.284;2024-02-16T12:45:06;100898.38;;;15.85;58.24
85140;BME280;75501;52.586;13.284;2024-02-16T12:47:34;100892.44;;;15.83;58.18
85140;BME280;75501;52.586;13.284;2024-02-16T12:50:03;100894.59;;;15.98;58.45